Airport ICAO


11:04 UTC

29°C

Few clouds


An affordable passengers' Moving Map for your aircraft. Made for the iPad and the iPhone
More information here

LFMN Cote D'Azur


Nice FRANCE   VFR


METAR LFMN 191030Z 19007KT 9999 FEW066 29/20 Q1017 NOSIG 0h34min

TAF LFMN 190800Z 1909/2015 18008KT CAVOK BECMG 1919/1921 33010KT BECMG 2008/2010 VRB02KT 3h04min





NOTAMS

OPEN